createdAt,value
2023-04-03T00:02:03.719Z,7.78
2023-04-03T00:04:31.363Z,7.78
2023-04-03T00:06:58.397Z,7.80
2023-04-03T00:09:25.237Z,7.82
2023-04-03T00:11:52.030Z,7.83
2023-04-03T00:14:19.008Z,7.81
2023-04-03T00:16:46.003Z,7.78
2023-04-03T00:19:13.834Z,7.73
2023-04-03T00:21:41.394Z,7.72
2023-04-03T00:24:08.196Z,7.72
2023-04-03T00:26:35.074Z,7.68
2023-04-03T00:29:01.922Z,7.71
2023-04-03T00:31:28.836Z,7.72
2023-04-03T00:33:55.663Z,7.70
2023-04-03T00:36:22.620Z,7.67
2023-04-03T00:38:49.504Z,7.63
2023-04-03T00:41:16.569Z,7.53
2023-04-03T00:43:43.367Z,7.51
2023-04-03T00:46:10.302Z,7.46
2023-04-03T00:48:42.122Z,7.45
2023-04-03T00:51:11.038Z,7.44
2023-04-03T00:53:42.053Z,7.42
2023-04-03T00:56:11.556Z,7.39
2023-04-03T00:58:41.280Z,7.36
2023-04-03T01:01:13.995Z,7.34
2023-04-03T01:03:40.837Z,7.35
2023-04-03T01:06:07.842Z,7.32
2023-04-03T01:08:35.066Z,7.20
2023-04-03T01:11:02.250Z,7.18
2023-04-03T01:13:31.173Z,7.14
2023-04-03T01:15:58.574Z,7.09
2023-04-03T01:18:25.687Z,7.08
2023-04-03T01:21:02.510Z,7.09
2023-04-03T01:23:38.591Z,7.10
2023-04-03T01:26:06.550Z,7.11
2023-04-03T01:28:34.854Z,7.09
2023-04-03T01:31:01.931Z,7.11
2023-04-03T01:33:28.888Z,7.10
2023-04-03T01:35:55.863Z,7.12
2023-04-03T01:38:22.769Z,7.09
2023-04-03T01:40:49.607Z,7.11
2023-04-03T01:43:16.490Z,7.09
2023-04-03T01:45:43.350Z,7.06
2023-04-03T01:48:10.277Z,7.07
2023-04-03T01:50:37.537Z,7.03
2023-04-03T01:53:06.926Z,7.04
2023-04-03T01:55:33.974Z,6.96
2023-04-03T01:58:00.986Z,6.87
2023-04-03T02:00:27.993Z,6.84
2023-04-03T02:02:54.918Z,6.84
2023-04-03T02:05:21.914Z,6.81
2023-04-03T02:07:48.707Z,6.80
2023-04-03T02:10:15.785Z,6.80
2023-04-03T02:12:42.569Z,6.77
2023-04-03T02:15:09.725Z,6.77
2023-04-03T02:17:38.977Z,6.75
2023-04-03T02:20:06.281Z,6.76
2023-04-03T02:22:33.122Z,6.74
2023-04-03T02:25:00.109Z,6.72
2023-04-03T02:27:26.987Z,6.74
2023-04-03T02:29:53.877Z,6.74
2023-04-03T02:32:20.673Z,6.72
2023-04-03T02:34:47.502Z,6.70
2023-04-03T02:37:14.313Z,6.70
2023-04-03T02:39:41.223Z,6.69
2023-04-03T02:42:08.705Z,6.63
2023-04-03T02:44:35.576Z,6.63
2023-04-03T02:47:02.396Z,6.64
2023-04-03T02:49:29.190Z,6.66
2023-04-03T02:51:56.038Z,6.65
2023-04-03T02:54:24.598Z,6.64
2023-04-03T02:56:52.493Z,6.66
2023-04-03T02:59:19.441Z,6.63
2023-04-03T03:01:46.243Z,6.62
2023-04-03T03:04:13.205Z,6.60
2023-04-03T03:06:40.057Z,6.60
2023-04-03T03:09:07.074Z,6.56
2023-04-03T03:11:33.935Z,6.53
2023-04-03T03:14:00.842Z,6.53
2023-04-03T03:16:27.864Z,6.46
2023-04-03T03:18:54.877Z,6.44
2023-04-03T03:21:21.715Z,6.47
2023-04-03T03:23:48.563Z,6.44
2023-04-03T03:26:15.832Z,6.43
2023-04-03T03:28:42.745Z,6.42
2023-04-03T03:31:10.153Z,6.41
2023-04-03T03:33:37.037Z,6.38
2023-04-03T03:36:04.195Z,6.37
2023-04-03T03:38:31.190Z,6.35
2023-04-03T03:40:58.096Z,6.31
2023-04-03T03:43:24.990Z,6.27
2023-04-03T03:45:53.172Z,6.22
2023-04-03T03:48:21.001Z,6.24
2023-04-03T03:50:47.914Z,6.25
2023-04-03T03:53:15.165Z,6.27
2023-04-03T03:55:42.109Z,6.27
2023-04-03T03:58:09.299Z,6.23
2023-04-03T04:00:36.467Z,6.18
2023-04-03T04:03:03.491Z,6.16
2023-04-03T04:05:30.531Z,6.14
2023-04-03T04:07:57.365Z,6.11
2023-04-03T04:10:24.531Z,6.11
2023-04-03T04:12:52.644Z,6.05
2023-04-03T04:15:19.828Z,6.07
2023-04-03T04:17:46.712Z,6.09
2023-04-03T04:20:13.600Z,6.10
2023-04-03T04:22:40.485Z,6.11
2023-04-03T04:25:07.535Z,6.12
2023-04-03T04:27:34.356Z,6.09
2023-04-03T04:30:01.207Z,6.08
2023-04-03T04:32:28.138Z,6.05
2023-04-03T04:34:55.198Z,6.04
2023-04-03T04:37:22.064Z,6.07
2023-04-03T04:39:48.904Z,6.10
2023-04-03T04:42:18.289Z,6.09
2023-04-03T04:44:45.161Z,6.11
2023-04-03T04:47:15.089Z,6.14
2023-04-03T04:49:41.944Z,6.16
2023-04-03T04:52:08.816Z,6.16
2023-04-03T04:54:35.712Z,6.18
2023-04-03T04:57:02.595Z,6.18
2023-04-03T04:59:29.533Z,6.16
2023-04-03T05:01:56.382Z,6.20
2023-04-03T05:04:23.406Z,6.24
2023-04-03T05:06:50.278Z,6.26
2023-04-03T05:09:17.360Z,6.26
2023-04-03T05:11:44.368Z,6.32
2023-04-03T05:14:11.212Z,6.35
2023-04-03T05:16:38.146Z,6.35
2023-04-03T05:19:05.290Z,6.34
2023-04-03T05:21:33.665Z,6.38
2023-04-03T05:24:04.012Z,6.39
2023-04-03T05:26:32.353Z,6.39
2023-04-03T05:28:59.625Z,6.36
2023-04-03T05:31:26.543Z,6.36
2023-04-03T05:33:53.491Z,6.40
2023-04-03T05:36:20.416Z,6.42
2023-04-03T05:38:47.430Z,6.41
2023-04-03T05:41:14.805Z,6.42
2023-04-03T05:43:41.624Z,6.43
2023-04-03T05:46:11.138Z,6.40
2023-04-03T05:48:38.497Z,6.49
2023-04-03T05:51:06.169Z,6.47
2023-04-03T05:53:34.518Z,6.48
2023-04-03T05:56:01.439Z,6.47
2023-04-03T05:58:28.406Z,6.47
2023-04-03T06:00:55.441Z,6.44
2023-04-03T06:03:22.702Z,6.51
2023-04-03T06:05:49.638Z,6.48
2023-04-03T06:08:16.557Z,6.44
2023-04-03T06:10:43.460Z,6.44
2023-04-03T06:13:10.482Z,6.48
2023-04-03T06:15:38.158Z,6.54
2023-04-03T06:18:05.133Z,6.57
2023-04-03T06:20:32.601Z,6.60
2023-04-03T06:22:59.703Z,6.65
2023-04-03T06:25:26.638Z,6.73
2023-04-03T06:27:53.659Z,6.67
2023-04-03T06:30:20.838Z,6.68
2023-04-03T06:32:47.762Z,6.68
2023-04-03T06:35:14.716Z,6.71
2023-04-03T06:37:41.670Z,6.72
2023-04-03T06:40:12.045Z,6.73
2023-04-03T06:42:39.012Z,6.77
2023-04-03T06:45:06.393Z,6.82
2023-04-03T06:47:33.409Z,6.88
2023-04-03T06:50:00.309Z,6.96
2023-04-03T06:52:27.807Z,7.01
2023-04-03T06:54:58.543Z,7.06
2023-04-03T06:57:25.912Z,7.08
2023-04-03T06:59:52.970Z,7.10
2023-04-03T07:02:20.133Z,7.12
2023-04-03T07:04:47.163Z,7.15
2023-04-03T07:07:14.109Z,7.15
2023-04-03T07:09:41.843Z,7.17
2023-04-03T07:12:09.523Z,7.18
2023-04-03T07:14:37.003Z,7.22
2023-04-03T07:17:03.891Z,7.24
2023-04-03T07:19:30.941Z,7.32
2023-04-03T07:21:57.888Z,7.39
2023-04-03T07:24:24.869Z,7.43
2023-04-03T07:26:53.009Z,7.50
2023-04-03T07:29:22.900Z,7.57
2023-04-03T07:31:50.669Z,7.53
2023-04-03T07:34:17.860Z,7.51
2023-04-03T07:36:44.976Z,7.52
2023-04-03T07:39:12.542Z,7.64
2023-04-03T07:41:39.651Z,7.80
2023-04-03T07:44:07.034Z,7.90
2023-04-03T07:46:33.947Z,7.96
2023-04-03T07:49:01.030Z,8.01
2023-04-03T07:51:29.562Z,7.96
2023-04-03T07:53:56.859Z,7.99
2023-04-03T07:56:24.268Z,8.02
2023-04-03T07:58:51.411Z,8.10
2023-04-03T08:01:18.594Z,8.19
2023-04-03T08:03:45.741Z,8.36
2023-04-03T08:06:16.217Z,8.74
2023-04-03T08:08:44.415Z,9.38
2023-04-03T08:11:12.037Z,10.10
2023-04-03T08:13:39.329Z,11.00
2023-04-03T08:16:14.584Z,11.36
2023-04-03T08:18:41.661Z,11.25
2023-04-03T08:21:09.955Z,11.04
2023-04-03T08:23:36.930Z,10.86
2023-04-03T08:26:14.044Z,10.68
2023-04-03T08:28:41.155Z,10.47
2023-04-03T08:31:09.621Z,10.31
2023-04-03T08:33:37.737Z,10.18
2023-04-03T08:36:06.762Z,10.13
2023-04-03T08:38:33.994Z,10.08
2023-04-03T08:41:05.992Z,10.07
2023-04-03T08:43:39.185Z,10.04
2023-04-03T08:46:08.085Z,10.04
2023-04-03T08:48:37.781Z,10.07
2023-04-03T08:51:12.104Z,10.17
2023-04-03T08:53:41.437Z,10.26
2023-04-03T08:56:10.465Z,10.41
2023-04-03T08:58:44.392Z,10.56
2023-04-03T09:01:20.929Z,10.59
2023-04-03T09:03:48.004Z,10.65
2023-04-03T09:06:15.254Z,10.65
2023-04-03T09:08:46.531Z,10.67
2023-04-03T09:11:17.258Z,10.74
2023-04-03T09:13:55.614Z,10.75
2023-04-03T09:16:23.044Z,10.75
2023-04-03T09:18:54.889Z,10.81
2023-04-03T09:21:29.633Z,10.81
2023-04-03T09:23:59.532Z,10.84
2023-04-03T09:26:30.719Z,10.86
2023-04-03T09:29:00.921Z,10.86
2023-04-03T09:31:30.930Z,10.89
2023-04-03T09:34:01.264Z,10.93
2023-04-03T09:36:37.856Z,10.95
2023-04-03T09:39:06.459Z,10.96
2023-04-03T09:41:34.709Z,11.03
2023-04-03T09:44:01.688Z,11.12
2023-04-03T09:46:31.580Z,11.19
2023-04-03T09:49:08.353Z,11.22
2023-04-03T09:51:37.185Z,11.25
2023-04-03T09:54:24.536Z,11.26
2023-04-03T09:56:53.061Z,11.32
2023-04-03T09:59:20.607Z,11.39
2023-04-03T10:01:56.934Z,11.42
2023-04-03T10:04:24.141Z,11.46
2023-04-03T10:06:53.560Z,11.52
2023-04-03T10:09:23.309Z,11.53
2023-04-03T10:12:00.214Z,11.52
2023-04-03T10:14:27.621Z,11.54
2023-04-03T10:17:04.912Z,11.49
2023-04-03T10:19:36.101Z,11.44
2023-04-03T10:22:13.911Z,11.42
2023-04-03T10:24:48.973Z,11.46
2023-04-03T10:27:26.006Z,11.52
2023-04-03T10:29:58.720Z,11.58
2023-04-03T10:32:34.737Z,11.62
2023-04-03T10:35:06.094Z,11.62
2023-04-03T10:37:42.797Z,11.61
2023-04-03T10:40:18.800Z,11.65
2023-04-03T10:42:48.908Z,11.69
2023-04-03T10:45:28.078Z,11.77
2023-04-03T10:48:04.822Z,11.88
2023-04-03T10:50:33.081Z,11.95
2023-04-03T10:53:00.643Z,11.99
2023-04-03T10:55:27.890Z,12.03
2023-04-03T10:57:58.053Z,12.05
2023-04-03T11:00:32.348Z,12.13
2023-04-03T11:03:02.290Z,12.18
2023-04-03T11:05:31.497Z,12.16
2023-04-03T11:08:01.386Z,12.20
2023-04-03T11:10:38.161Z,12.19
2023-04-03T11:13:12.831Z,12.20
2023-04-03T11:15:40.432Z,12.23
2023-04-03T11:18:13.385Z,12.33
2023-04-03T11:20:43.199Z,12.45
2023-04-03T11:23:20.740Z,12.57
2023-04-03T11:25:50.988Z,12.68
2023-04-03T11:28:18.360Z,12.79
2023-04-03T11:30:48.771Z,12.84
2023-04-03T11:33:24.912Z,12.86
2023-04-03T11:35:55.575Z,12.81
2023-04-03T11:38:27.515Z,12.75
2023-04-03T11:40:56.658Z,12.78
2023-04-03T11:43:24.606Z,12.74
2023-04-03T11:45:52.438Z,12.72
2023-04-03T11:48:24.788Z,12.59
2023-04-03T11:50:52.669Z,12.57
2023-04-03T11:53:19.864Z,12.57
2023-04-03T11:55:47.080Z,12.54
2023-04-03T11:58:16.236Z,12.52
2023-04-03T12:00:44.405Z,12.52
2023-04-03T12:03:21.062Z,12.55
2023-04-03T12:05:48.081Z,12.47
2023-04-03T12:08:25.557Z,12.49
2023-04-03T12:11:01.821Z,12.48
2023-04-03T12:13:29.854Z,12.45
2023-04-03T12:15:58.537Z,12.45
2023-04-03T12:18:33.941Z,12.49
2023-04-03T12:21:01.056Z,12.44
2023-04-03T12:23:31.064Z,12.40
2023-04-03T12:26:04.552Z,12.42
2023-04-03T12:28:37.172Z,12.36
2023-04-03T12:31:05.811Z,12.36
2023-04-03T12:33:42.056Z,12.40
2023-04-03T12:36:14.104Z,12.43
2023-04-03T12:38:50.947Z,12.42
2023-04-03T12:41:19.164Z,12.40
2023-04-03T12:43:55.797Z,12.41
2023-04-03T12:46:24.181Z,12.33
2023-04-03T12:48:52.762Z,12.32
2023-04-03T12:51:22.163Z,12.33
2023-04-03T12:53:50.955Z,12.37
2023-04-03T12:56:23.180Z,12.41
2023-04-03T12:58:51.021Z,12.49
2023-04-03T13:01:20.227Z,12.53
2023-04-03T13:03:49.822Z,12.54
2023-04-03T13:06:26.845Z,12.56
2023-04-03T13:08:54.890Z,12.57
2023-04-03T13:11:23.379Z,12.53
2023-04-03T13:13:59.814Z,12.51
2023-04-03T13:16:27.696Z,12.53
2023-04-03T13:18:55.303Z,12.49
2023-04-03T13:21:25.069Z,12.52
2023-04-03T13:24:00.588Z,12.49
2023-04-03T13:26:35.027Z,12.54
2023-04-03T13:29:04.836Z,12.48
2023-04-03T13:31:33.679Z,12.48
2023-04-03T13:34:09.752Z,12.47
2023-04-03T13:36:39.839Z,12.47
2023-04-03T13:39:16.064Z,12.49
2023-04-03T13:41:45.366Z,12.51
2023-04-03T13:44:19.483Z,12.53
2023-04-03T13:46:46.687Z,12.56
2023-04-03T13:49:20.399Z,12.63
2023-04-03T13:51:56.961Z,12.70
2023-04-03T13:54:34.990Z,12.76
2023-04-03T13:57:02.739Z,12.76
2023-04-03T13:59:31.040Z,12.79
2023-04-03T14:02:05.164Z,12.74
2023-04-03T14:04:33.745Z,12.71
2023-04-03T14:07:01.065Z,12.72
2023-04-03T14:09:28.890Z,12.77
2023-04-03T14:11:58.862Z,12.76
2023-04-03T14:14:29.143Z,12.83
2023-04-03T14:16:58.097Z,12.84
2023-04-03T14:19:27.318Z,12.87
2023-04-03T14:21:55.167Z,12.89
2023-04-03T14:24:23.076Z,12.91
2023-04-03T14:26:51.326Z,12.88
2023-04-03T14:29:18.553Z,12.92
2023-04-03T14:31:47.257Z,12.91
2023-04-03T14:34:15.175Z,12.93
2023-04-03T14:36:44.312Z,12.86
2023-04-03T14:39:17.603Z,12.87
2023-04-03T14:41:44.635Z,12.84
2023-04-03T14:44:11.667Z,12.80
2023-04-03T14:46:55.418Z,12.86
2023-04-03T14:49:25.336Z,12.85
2023-04-03T14:51:52.322Z,12.95
2023-04-03T14:54:26.776Z,12.93
2023-04-03T14:56:54.180Z,12.90
2023-04-03T14:59:22.896Z,12.89
2023-04-03T15:01:50.287Z,12.89
2023-04-03T15:04:19.973Z,12.93
2023-04-03T15:06:48.403Z,12.93
2023-04-03T15:09:21.072Z,12.96
2023-04-03T15:11:48.623Z,12.98
2023-04-03T15:14:24.314Z,12.97
2023-04-03T15:17:02.660Z,12.92
2023-04-03T15:19:29.711Z,12.91
2023-04-03T15:21:56.793Z,12.95
2023-04-03T15:24:23.797Z,12.98
2023-04-03T15:26:50.716Z,12.98
2023-04-03T15:29:17.668Z,12.99
2023-04-03T15:31:44.624Z,12.96
2023-04-03T15:36:59.344Z,13.03
2023-04-03T15:39:27.189Z,13.00
2023-04-03T15:41:55.198Z,12.98
2023-04-03T15:44:22.777Z,12.99
2023-04-03T15:46:51.231Z,12.93
2023-04-03T15:49:19.110Z,12.89
2023-04-03T15:51:46.150Z,12.88
2023-04-03T15:54:13.107Z,12.88
2023-04-03T15:56:40.073Z,12.90
2023-04-03T15:59:07.276Z,12.90
2023-04-03T16:01:34.705Z,12.94
2023-04-03T16:04:02.147Z,12.91
2023-04-03T16:06:31.991Z,12.86
2023-04-03T16:08:59.518Z,12.86
2023-04-03T16:11:27.449Z,12.86
2023-04-03T16:13:55.081Z,12.85
2023-04-03T16:16:22.168Z,12.80
2023-04-03T16:18:49.752Z,12.78
2023-04-03T16:21:17.216Z,12.79
2023-04-03T16:23:44.759Z,12.83
2023-04-03T16:26:12.023Z,12.81
2023-04-03T16:28:39.125Z,12.77
2023-04-03T16:31:06.887Z,12.71
2023-04-03T16:33:34.308Z,12.68
2023-04-03T16:36:01.464Z,12.67
2023-04-03T16:38:28.674Z,12.68
2023-04-03T16:40:58.194Z,12.63
2023-04-03T16:43:25.580Z,12.54
2023-04-03T16:45:52.689Z,12.48
2023-04-03T16:48:19.793Z,12.43
2023-04-03T16:50:49.447Z,12.43
2023-04-03T16:53:16.882Z,12.46
2023-04-03T16:55:43.884Z,12.46
2023-04-03T16:58:11.585Z,12.42
2023-04-03T17:00:38.854Z,12.43
2023-04-03T17:03:05.837Z,12.40
2023-04-03T17:08:19.863Z,12.33
2023-04-03T17:10:46.883Z,12.32
2023-04-03T17:13:14.196Z,12.27
2023-04-03T17:15:41.899Z,12.24
2023-04-03T17:18:09.282Z,12.19
2023-04-03T17:20:37.547Z,12.14
2023-04-03T17:23:04.692Z,12.11
2023-04-03T17:25:31.768Z,12.11
2023-04-03T17:27:58.963Z,12.10
2023-04-03T17:30:26.221Z,12.02
2023-04-03T17:32:53.243Z,11.97
2023-04-03T17:35:20.300Z,11.88
2023-04-03T17:37:48.417Z,11.86
2023-04-03T17:40:15.504Z,11.80
2023-04-03T17:42:42.580Z,11.78
2023-04-03T17:45:10.119Z,11.76
2023-04-03T17:47:37.085Z,11.64
2023-04-03T17:50:04.327Z,11.58
2023-04-03T17:52:32.357Z,11.47
2023-04-03T17:54:59.347Z,11.39
2023-04-03T17:57:26.408Z,11.35
2023-04-03T17:59:54.449Z,11.31
2023-04-03T18:02:21.651Z,11.30
2023-04-03T18:04:51.089Z,11.26
2023-04-03T18:07:18.129Z,11.24
2023-04-03T18:09:46.265Z,11.22
2023-04-03T18:12:13.330Z,11.17
2023-04-03T18:14:40.783Z,11.12
2023-04-03T18:17:08.205Z,11.08
2023-04-03T18:19:35.286Z,11.04
2023-04-03T18:22:03.881Z,11.00
2023-04-03T18:24:32.607Z,10.95
2023-04-03T18:27:01.714Z,10.91
2023-04-03T18:29:31.002Z,10.88
2023-04-03T18:31:59.117Z,10.84
2023-04-03T18:34:26.160Z,10.80
2023-04-03T18:36:53.123Z,10.73
2023-04-03T18:39:20.207Z,10.68
2023-04-03T18:41:47.627Z,10.65
2023-04-03T18:44:16.558Z,10.62
2023-04-03T18:46:43.894Z,10.58
2023-04-03T18:49:11.918Z,10.52
2023-04-03T18:51:40.382Z,10.49
2023-04-03T18:54:07.422Z,10.42
2023-04-03T18:56:34.420Z,10.37
2023-04-03T18:59:01.437Z,10.28
2023-04-03T19:01:28.577Z,10.22
2023-04-03T19:03:55.658Z,10.15
2023-04-03T19:06:22.585Z,10.11
2023-04-03T19:08:50.358Z,10.04
2023-04-03T19:11:17.437Z,9.97
2023-04-03T19:13:57.823Z,9.93
2023-04-03T19:16:31.239Z,9.87
2023-04-03T19:18:58.342Z,9.84
2023-04-03T19:21:25.305Z,9.81
2023-04-03T19:23:52.368Z,9.79
2023-04-03T19:26:19.623Z,9.70
2023-04-03T19:28:49.412Z,9.65
2023-04-03T19:31:18.312Z,9.62
2023-04-03T19:33:46.202Z,9.61
2023-04-03T19:36:13.200Z,9.55
2023-04-03T19:38:40.388Z,9.54
2023-04-03T19:41:09.391Z,9.48
2023-04-03T19:43:37.447Z,9.43
2023-04-03T19:46:07.207Z,9.37
2023-04-03T19:48:36.309Z,9.35
2023-04-03T19:51:05.087Z,9.34
2023-04-03T19:53:33.126Z,9.32
2023-04-03T19:56:01.371Z,9.31
2023-04-03T19:58:30.305Z,9.27
2023-04-03T20:00:58.526Z,9.23
2023-04-03T20:03:27.063Z,9.21
2023-04-03T20:05:54.793Z,9.18
2023-04-03T20:08:22.187Z,9.19
2023-04-03T20:10:50.141Z,9.16
2023-04-03T20:13:17.159Z,9.13
2023-04-03T20:15:45.180Z,9.08
2023-04-03T20:18:18.310Z,9.06
2023-04-03T20:20:46.574Z,9.06
2023-04-03T20:23:13.692Z,9.03
2023-04-03T20:25:50.693Z,9.05
2023-04-03T20:28:25.159Z,9.00
2023-04-03T20:30:54.928Z,8.93
2023-04-03T20:33:22.664Z,8.95
2023-04-03T20:35:50.130Z,8.96
2023-04-03T20:38:17.900Z,8.94
2023-04-03T20:40:45.566Z,8.95
2023-04-03T20:43:12.827Z,8.95
2023-04-03T20:45:40.114Z,8.88
2023-04-03T20:48:09.864Z,8.92
2023-04-03T20:50:37.163Z,8.92
2023-04-03T20:53:04.245Z,8.90
2023-04-03T20:55:31.307Z,8.90
2023-04-03T20:58:01.654Z,8.89
2023-04-03T21:00:29.276Z,8.88
2023-04-03T21:02:58.234Z,8.89
2023-04-03T21:05:26.527Z,8.86
2023-04-03T21:08:03.166Z,8.86
2023-04-03T21:10:40.607Z,8.88
2023-04-03T21:13:17.814Z,8.88
2023-04-03T21:15:52.865Z,8.87
2023-04-03T21:18:20.058Z,8.88
2023-04-03T21:20:47.905Z,8.90
2023-04-03T21:23:15.005Z,8.86
2023-04-03T21:25:41.947Z,8.84
2023-04-03T21:28:09.160Z,8.78
2023-04-03T21:30:36.234Z,8.74
2023-04-03T21:33:03.373Z,8.71
2023-04-03T21:35:31.218Z,8.72
2023-04-03T21:37:58.254Z,8.70
2023-04-03T21:40:25.224Z,8.68
2023-04-03T21:42:54.503Z,8.65
2023-04-03T21:45:21.700Z,8.64
2023-04-03T21:47:49.068Z,8.60
2023-04-03T21:50:16.061Z,8.61
2023-04-03T21:52:43.075Z,8.60
2023-04-03T21:55:10.381Z,8.56
2023-04-03T21:57:37.539Z,8.56
2023-04-03T22:00:11.200Z,8.57
2023-04-03T22:02:40.690Z,8.56
2023-04-03T22:05:07.989Z,8.52
2023-04-03T22:07:35.082Z,8.52
2023-04-03T22:10:02.062Z,8.46
2023-04-03T22:12:29.858Z,8.43
2023-04-03T22:14:56.997Z,8.39
2023-04-03T22:17:23.983Z,8.40
2023-04-03T22:19:51.024Z,8.37
2023-04-03T22:22:18.026Z,8.34
2023-04-03T22:24:45.109Z,8.32
2023-04-03T22:27:13.453Z,8.31
2023-04-03T22:29:40.800Z,8.28
2023-04-03T22:32:07.903Z,8.26
2023-04-03T22:34:38.550Z,8.25
2023-04-03T22:37:05.547Z,8.22
2023-04-03T22:39:32.509Z,8.20
2023-04-03T22:42:00.804Z,8.19
2023-04-03T22:44:32.167Z,8.24
2023-04-03T22:47:03.356Z,8.25
2023-04-03T22:49:30.445Z,8.22
2023-04-03T22:51:59.732Z,8.18
2023-04-03T22:54:26.786Z,8.15
2023-04-03T22:56:53.899Z,8.14
2023-04-03T22:59:20.852Z,8.14
2023-04-03T23:01:47.881Z,8.09
2023-04-03T23:04:15.026Z,8.03
2023-04-03T23:06:44.795Z,8.04
2023-04-03T23:09:11.929Z,8.01
2023-04-03T23:11:42.011Z,7.98
2023-04-03T23:14:09.076Z,7.97
2023-04-03T23:16:36.464Z,7.99
2023-04-03T23:19:03.915Z,7.96
2023-04-03T23:21:30.899Z,7.95
2023-04-03T23:23:57.854Z,7.91
2023-04-03T23:26:26.025Z,7.89
2023-04-03T23:28:53.047Z,7.86
2023-04-03T23:31:19.992Z,7.82
2023-04-03T23:33:46.919Z,7.78
2023-04-03T23:36:14.019Z,7.74
2023-04-03T23:38:41.510Z,7.71
2023-04-03T23:41:08.517Z,7.71
2023-04-03T23:43:35.952Z,7.69
2023-04-03T23:46:03.061Z,7.71
2023-04-03T23:48:30.079Z,7.73
2023-04-03T23:50:57.162Z,7.75
2023-04-03T23:53:24.229Z,7.75
2023-04-03T23:55:51.361Z,7.73
2023-04-03T23:58:18.341Z,7.74
